Time;durP1;ratioP1;P1;durP2;ratioP2;P2;SDS_P1;SDS_P2;PMS_P1;PMS_P2;Temp;Humidity;BMP_temperature;BMP_pressure;BME280_temperature;BME280_humidity;BME280_pressure;Samples;Min_cycle;Max_cycle;Signal;HPM_P1;HPM_P2
2022/05/02 00:03:58;;;;;;;0.00;0.00;;;12.30;86.30;;;10.79;65.33;100177.59;10426962;27;96622;-80
2022/05/02 00:09:02;;;;;;;0.00;0.00;;;12.20;87.80;;;10.81;65.43;100183.59;10415371;27;97634;-79
2022/05/02 00:14:05;;;;;;;0.30;0.30;;;12.30;88.50;;;10.81;66.30;100184.41;10404142;27;96549;-80
2022/05/02 00:19:07;;;;;;;0.00;0.00;;;12.30;88.30;;;10.80;66.53;100180.09;10391618;27;98455;-79
2022/05/02 00:24:10;;;;;;;0.00;0.00;;;12.30;87.70;;;10.76;66.63;100176.13;10406263;27;96436;-79
2022/05/02 00:29:14;;;;;;;0.00;0.00;;;12.30;88.30;;;10.77;66.64;100199.03;10415478;27;96611;-79
2022/05/02 00:34:17;;;;;;;0.00;0.00;;;12.30;90.30;;;10.74;66.60;100202.03;10420693;27;96551;-79
2022/05/02 00:39:20;;;;;;;0.00;0.00;;;12.20;90.40;;;10.67;66.41;100199.19;10410175;27;96435;-79
2022/05/02 00:44:23;;;;;;;0.00;0.00;;;12.20;90.20;;;10.62;66.40;100198.06;10414347;27;98258;-79
2022/05/02 00:49:26;;;;;;;0.00;0.00;;;12.10;91.40;;;10.52;66.61;100205.38;10397280;27;97262;-79
2022/05/02 00:54:29;;;;;;;0.00;0.00;;;12.00;90.60;;;10.44;66.66;100198.25;10411977;27;96556;-79
2022/05/02 00:59:36;;;;;;;0.00;0.00;;;11.90;91.60;;;10.31;67.32;100201.38;10406097;27;96616;-79
2022/05/02 01:04:39;;;;;;;0.00;0.00;;;11.80;92.10;;;10.21;67.50;100205.19;10407698;27;97013;-79
2022/05/02 01:09:44;;;;;;;0.93;0.20;;;11.70;92.20;;;10.09;67.40;100188.75;10428396;27;96578;-79
2022/05/02 01:14:55;;;;;;;0.00;0.00;;;11.60;93.70;;;10.00;68.11;100200.34;10400895;27;96556;-79
2022/05/02 01:19:58;;;;;;;0.00;0.00;;;11.50;93.60;;;9.96;68.35;100201.69;10381980;27;98448;-79
2022/05/02 01:25:01;;;;;;;0.00;0.00;;;11.50;93.70;;;9.89;68.32;100189.03;10416844;27;96625;-79
2022/05/02 01:30:04;;;;;;;0.00;0.00;;;11.40;94.10;;;9.88;67.93;100192.69;10431360;27;99010;-79
2022/05/02 01:35:10;;;;;;;0.00;0.00;;;11.40;93.60;;;9.84;68.56;100202.00;10378373;27;98733;-79
2022/05/02 01:40:13;;;;;;;0.13;0.13;;;11.30;95.70;;;9.81;69.05;100202.31;10374378;27;96550;-79
2022/05/02 01:45:16;;;;;;;0.00;0.00;;;11.30;95.90;;;9.80;69.66;100194.53;10430512;27;97613;-78
2022/05/02 01:50:19;;;;;;;0.00;0.00;;;11.30;97.00;;;9.72;70.55;100195.34;10425573;27;96541;-78
2022/05/02 01:55:22;;;;;;;0.30;0.10;;;11.20;99.20;;;9.66;71.12;100185.38;10444985;27;97003;-78
2022/05/02 02:00:25;;;;;;;2.73;0.53;;;11.10;99.70;;;9.64;71.23;100184.69;10410063;27;97430;-78
2022/05/02 02:10:53;;;;;;;0.00;0.00;;;11.10;99.30;;;9.70;70.93;100181.38;10418252;27;96637;-78
2022/05/02 02:15:57;;;;;;;0.00;0.00;;;11.10;98.60;;;9.77;71.19;100174.44;10411833;27;96641;-79
2022/05/02 02:21:00;;;;;;;0.00;0.00;;;11.20;99.90;;;9.83;70.80;100176.44;10391714;28;96458;-79
2022/05/02 02:26:05;;;;;;;0.00;0.00;;;11.20;99.70;;;9.90;71.08;100177.47;10418990;27;98088;-79
2022/05/02 02:31:09;;;;;;;0.00;0.00;;;11.30;98.80;;;10.00;70.92;100184.41;10398143;27;97840;-79
2022/05/02 02:36:12;;;;;;;0.00;0.00;;;11.40;99.10;;;10.07;70.90;100180.94;10422379;27;96717;-79
2022/05/02 02:41:15;;;;;;;0.17;0.10;;;11.50;98.90;;;10.12;70.80;100194.56;10401125;27;96654;-79
2022/05/02 02:46:18;;;;;;;0.23;0.20;;;11.50;98.50;;;10.16;70.88;100181.78;10436435;27;96666;-79
2022/05/02 02:51:20;;;;;;;0.00;0.00;;;11.60;98.40;;;10.17;70.93;100180.78;10417864;27;97725;-79
2022/05/02 02:56:23;;;;;;;0.00;0.00;;;11.60;97.80;;;10.19;71.11;100184.09;10399486;27;97419;-79
2022/05/02 03:01:28;;;;;;;0.07;0.07;;;11.60;98.10;;;10.21;71.13;100208.69;10415205;27;97793;-78
2022/05/02 03:06:32;;;;;;;0.00;0.00;;;11.70;97.80;;;10.21;71.21;100203.38;10416701;27;97676;-79
2022/05/02 03:11:35;;;;;;;0.00;0.00;;;11.70;98.90;;;10.18;71.56;100196.53;10419770;28;96431;-79
2022/05/02 03:16:38;;;;;;;0.00;0.00;;;11.70;99.90;;;10.21;71.74;100208.69;10410813;27;98925;-79
2022/05/02 03:21:41;;;;;;;0.00;0.00;;;11.60;99.90;;;10.21;71.53;100202.53;10376899;28;97836;-79
2022/05/02 03:26:44;;;;;;;0.00;0.00;;;11.70;99.80;;;10.20;71.70;100196.41;10398855;27;96597;-79
2022/05/02 03:31:47;;;;;;;0.00;0.00;;;11.70;99.90;;;10.24;71.34;100203.06;10403239;27;96695;-79
2022/05/02 03:36:50;;;;;;;0.00;0.00;;;11.70;99.90;;;10.24;71.48;100203.06;10390134;27;96665;-78
2022/05/02 03:41:54;;;;;;;0.00;0.00;;;11.70;99.90;;;10.28;71.69;100198.25;10378974;27;96541;-79
2022/05/02 03:46:57;;;;;;;0.27;0.27;;;11.70;99.90;;;10.29;71.54;100199.91;10426862;27;98126;-79
2022/05/02 03:51:59;;;;;;;0.00;0.00;;;11.70;99.90;;;10.31;72.04;100193.41;10414538;27;96850;-79
2022/05/02 03:57:03;;;;;;;0.00;0.00;;;11.70;99.90;;;10.33;72.02;100188.78;10401254;27;96691;-79
2022/05/02 04:02:06;;;;;;;0.00;0.00;;;11.80;99.90;;;10.41;71.78;100190.59;10387176;27;96620;-79
2022/05/02 04:07:09;;;;;;;0.10;0.10;;;11.80;99.90;;;10.49;71.44;100189.75;10421833;27;97454;-79
2022/05/02 04:12:12;;;;;;;0.00;0.00;;;11.90;99.90;;;10.60;70.96;100186.75;10398745;27;96522;-79
2022/05/02 04:17:15;;;;;;;0.00;0.00;;;12.00;99.90;;;10.72;70.96;100188.06;10406877;27;96698;-79
2022/05/02 04:22:18;;;;;;;0.00;0.00;;;12.10;99.90;;;10.85;71.25;100188.38;10399771;27;97079;-79
2022/05/02 04:27:21;;;;;;;0.00;0.00;;;12.20;99.90;;;11.01;70.85;100190.16;10392053;27;96449;-79
2022/05/02 04:32:25;;;;;;;0.10;0.10;;;12.30;99.90;;;11.18;71.57;100191.78;10399304;27;98251;-79
2022/05/02 04:37:28;;;;;;;0.00;0.00;;;12.50;99.90;;;11.35;70.94;100186.41;10416805;27;96887;-79
2022/05/02 04:42:32;;;;;;;0.00;0.00;;;12.60;99.90;;;11.56;70.77;100183.13;10424064;27;96507;-79
2022/05/02 04:47:35;;;;;;;0.00;0.00;;;12.80;99.90;;;11.78;69.94;100190.31;10421146;27;98493;-79
2022/05/02 04:52:38;;;;;;;0.40;0.20;;;13.00;99.50;;;11.91;68.07;100187.94;10407871;27;96653;-79
2022/05/02 04:57:41;;;;;;;0.00;0.00;;;13.20;98.20;;;11.99;67.71;100195.03;10417202;27;96685;-80
2022/05/02 05:02:44;;;;;;;0.00;0.00;;;13.30;98.00;;;12.04;67.61;100193.50;10414115;27;96778;-80
2022/05/02 05:07:48;;;;;;;0.00;0.00;;;13.30;97.90;;;12.13;67.84;100204.94;10398994;27;97745;-80
2022/05/02 05:13:07;;;;;;;0.27;0.27;;;13.40;98.00;;;12.19;67.58;100193.56;10403499;27;96576;-79
2022/05/02 05:18:48;;;;;;;0.00;0.00;;;13.50;97.70;;;12.24;67.35;100204.53;10398119;27;96786;-80
2022/05/02 05:24:29;;;;;;;0.00;0.00;;;13.60;97.20;;;12.29;66.72;100209.28;10403249;27;97590;-79
2022/05/02 05:30:04;;;;;;;0.00;0.00;;;13.70;96.70;;;12.34;66.96;100209.59;10399692;27;98623;-79
2022/05/02 05:35:10;;;;;;;0.10;0.10;;;13.70;96.80;;;12.44;66.93;100210.19;10427950;27;96631;-79
2022/05/02 05:40:35;;;;;;;0.00;0.00;;;13.80;96.70;;;12.54;66.48;100207.28;10464008;27;96433;-79
2022/05/02 05:46:02;;;;;;;0.20;0.13;;;13.90;95.90;;;12.68;66.24;100206.47;10418221;27;96737;-79
2022/05/02 05:51:34;;;;;;;0.00;0.00;;;14.00;95.80;;;12.85;66.57;100207.16;10426582;27;96485;-79
2022/05/02 05:56:51;;;;;;;0.00;0.00;;;14.10;96.00;;;13.04;65.26;100205.78;10456571;27;96679;-79
2022/05/02 06:02:19;;;;;;;0.00;0.00;;;14.30;95.20;;;13.20;65.08;100204.78;10404447;27;98159;-79
2022/05/02 06:07:23;;;;;;;0.00;0.00;;;14.40;95.10;;;13.36;64.73;100209.94;10400476;27;98586;-79
2022/05/02 06:12:30;;;;;;;0.00;0.00;;;14.60;94.80;;;13.49;63.64;100209.25;10403898;27;96667;-79
2022/05/02 06:23:01;;;;;;;0.00;0.00;;;14.90;92.60;;;13.84;60.03;100204.97;10420961;27;96457;-79
2022/05/02 06:28:07;;;;;;;0.10;0.10;;;15.00;90.20;;;14.03;59.43;100200.84;10417755;27;96636;-80
2022/05/02 06:33:15;;;;;;;0.00;0.00;;;15.20;90.90;;;14.27;59.14;100196.97;10417481;27;96541;-79
2022/05/02 06:38:35;;;;;;;0.10;0.10;;;15.40;90.20;;;14.58;58.29;100200.16;10419447;27;96500;-80
2022/05/02 06:43:54;;;;;;;0.05;0.05;;;15.70;87.50;;;14.82;55.25;100201.56;10417345;27;96628;-80
2022/05/02 06:49:08;;;;;;;0.10;0.10;;;16.00;86.00;;;15.04;53.82;100206.84;10401927;28;97412;-80
2022/05/02 06:55:10;;;;;;;1.35;1.20;;;16.20;83.50;;;15.19;54.93;100202.19;10398848;27;96462;-80
2022/05/02 07:00:17;;;;;;;0.00;0.00;;;16.40;82.80;;;15.26;54.54;100201.22;10418670;28;96522;-80
2022/05/02 07:05:46;;;;;;;0.10;0.10;;;16.50;81.70;;;15.48;56.09;100211.81;10399644;28;96497;-80
2022/05/02 07:10:59;;;;;;;0.10;0.10;;;16.70;83.30;;;15.72;55.61;100215.88;10416682;27;96647;-80
2022/05/02 07:16:11;;;;;;;0.00;0.00;;;16.90;82.50;;;15.93;55.48;100206.84;10425069;27;97487;-80
2022/05/02 07:21:27;;;;;;;0.32;0.32;;;17.10;81.30;;;16.10;54.08;100215.34;10459540;27;96822;-80
2022/05/02 07:26:33;;;;;;;0.10;0.10;;;17.30;78.80;;;16.23;53.99;100215.34;10421706;27;96650;-80
2022/05/02 07:31:40;;;;;;;0.00;0.00;;;17.40;79.70;;;16.39;50.97;100212.28;10420161;27;97681;-80
2022/05/02 07:36:51;;;;;;;0.00;0.00;;;17.60;76.20;;;16.56;51.99;100205.50;10417707;28;96498;-81
2022/05/02 07:42:00;;;;;;;0.52;0.52;;;17.80;76.30;;;16.70;51.34;100206.31;10418597;27;96901;-80
2022/05/02 07:47:04;;;;;;;0.00;0.00;;;17.90;75.10;;;16.85;50.42;100204.25;10449849;27;96656;-78
2022/05/02 07:52:09;;;;;;;0.00;0.00;;;18.10;74.10;;;16.86;50.49;100199.72;10409335;27;96749;-80
2022/05/02 07:57:16;;;;;;;0.20;0.10;;;18.10;73.10;;;17.06;50.21;100200.50;10414365;27;96494;-80
2022/05/02 08:02:20;;;;;;;0.00;0.00;;;18.30;72.50;;;17.25;50.41;100196.09;10420492;27;96686;-80
2022/05/02 08:07:30;;;;;;;0.00;0.00;;;18.40;72.70;;;17.54;49.61;100199.31;10374256;28;96493;-79
2022/05/02 08:12:55;;;;;;;0.00;0.00;;;18.60;70.50;;;17.91;48.13;100193.16;10411637;27;96700;-80
2022/05/02 08:18:26;;;;;;;0.00;0.00;;;19.00;69.10;;;18.40;46.81;100196.94;10398091;28;96549;-80
2022/05/02 08:29:40;;;;;;;0.00;0.00;;;19.60;64.80;;;18.50;45.40;100187.56;10374161;28;96592;-80
2022/05/02 08:35:07;;;;;;;0.00;0.00;;;19.60;64.60;;;18.49;45.16;100183.25;10387979;27;96840;-80
2022/05/02 08:40:22;;;;;;;0.88;0.25;;;19.70;64.30;;;18.44;44.04;100179.31;10413160;27;96564;-79
2022/05/02 08:46:28;;;;;;;0.00;0.00;;;19.70;62.00;;;18.43;44.53;100175.00;10415747;27;96457;-79
2022/05/02 08:52:12;;;;;;;0.25;0.10;;;19.70;62.20;;;18.46;44.02;100174.53;10375782;27;97433;-80
2022/05/02 08:57:35;;;;;;;0.13;0.08;;;19.80;62.10;;;18.55;44.76;100172.41;10410224;27;97110;-80
2022/05/02 09:03:31;;;;;;;0.00;0.00;;;19.80;62.00;;;18.69;43.93;100162.38;10422334;28;96468;-80
2022/05/02 09:09:08;;;;;;;0.00;0.00;;;19.90;62.30;;;18.88;43.55;100155.97;10390589;27;98478;-80
2022/05/02 09:14:48;;;;;;;0.00;0.00;;;20.10;61.20;;;18.98;42.52;100156.28;10421075;27;96555;-80
2022/05/02 09:20:35;;;;;;;0.00;0.00;;;20.30;60.40;;;19.14;43.77;100151.34;10402383;27;97720;-79
2022/05/02 09:26:06;;;;;;;0.00;0.00;;;20.30;60.40;;;19.24;41.73;100149.75;10390487;27;98301;-80
2022/05/02 09:31:21;;;;;;;0.15;0.15;;;20.50;58.50;;;19.38;41.08;100144.22;10422175;27;96594;-80
2022/05/02 09:36:50;;;;;;;0.08;0.08;;;20.60;58.40;;;19.51;41.95;100139.47;10397474;27;96587;-80
2022/05/02 09:42:22;;;;;;;0.20;0.10;;;20.80;58.80;;;19.76;42.62;100141.25;10388484;27;96660;-80
2022/05/02 09:53:46;;;;;;;0.00;0.00;;;21.10;57.20;;;20.19;40.23;100134.78;10420272;28;96445;-80
2022/05/02 09:59:07;;;;;;;0.00;0.00;;;21.40;57.50;;;20.39;40.96;100116.41;10401121;28;98565;-80
2022/05/02 10:04:32;;;;;;;0.00;0.00;;;21.60;56.90;;;20.73;40.48;100103.13;10407512;27;96521;-80
2022/05/02 10:09:38;;;;;;;0.00;0.00;;;21.90;56.10;;;21.02;40.13;100094.03;10418144;27;96678;-80
2022/05/02 10:15:06;;;;;;;2.17;0.60;;;22.20;57.40;;;21.15;38.13;100094.81;10417405;27;96573;-80
2022/05/02 10:20:22;;;;;;;0.00;0.00;;;22.30;55.30;;;21.18;39.15;100086.25;10434972;27;96439;-80
2022/05/02 10:25:35;;;;;;;0.00;0.00;;;22.40;54.90;;;21.21;38.68;100080.34;10368272;27;96640;-80
2022/05/02 10:31:04;;;;;;;0.00;0.00;;;22.40;53.70;;;21.31;38.48;100070.59;10419359;27;96616;-80
2022/05/02 10:36:10;;;;;;;0.83;0.13;;;22.50;54.60;;;21.25;38.17;100079.63;10416537;27;96847;-80
2022/05/02 10:41:27;;;;;;;0.00;0.00;;;22.50;53.60;;;21.10;37.71;100072.03;10416521;27;96533;-80
2022/05/02 10:46:32;;;;;;;4.75;0.85;;;22.40;52.60;;;20.97;38.11;100072.31;10431035;27;97301;-80
2022/05/02 10:52:02;;;;;;;0.00;0.00;;;22.30;53.30;;;20.88;38.56;100068.38;10424450;27;96916;-80
2022/05/02 10:57:20;;;;;;;0.35;0.20;;;22.20;53.60;;;20.86;37.57;100065.06;10417928;27;97247;-80
2022/05/02 11:02:52;;;;;;;0.00;0.00;;;22.20;52.50;;;20.89;37.75;100053.78;10399365;27;97396;-79
2022/05/02 11:08:55;;;;;;;1.17;0.30;;;22.20;52.60;;;20.90;38.37;100049.22;10418547;27;96646;-79
2022/05/02 11:14:11;;;;;;;0.00;0.00;;;22.20;53.10;;;20.90;36.72;100060.84;10416943;27;96665;-79
2022/05/02 11:25:14;;;;;;;0.00;0.00;;;22.20;51.80;;;20.73;37.69;100058.03;10382622;27;97464;-80
2022/05/02 11:30:23;;;;;;;0.00;0.00;;;22.10;52.30;;;20.77;38.57;100050.31;10413332;27;97501;-80
2022/05/02 11:35:32;;;;;;;0.00;0.00;;;22.10;52.90;;;20.78;36.86;100049.25;10383613;27;97197;-79
2022/05/02 11:40:53;;;;;;;0.00;0.00;;;22.10;51.90;;;20.69;37.29;100038.00;10415725;27;98705;-79
2022/05/02 11:46:02;;;;;;;0.00;0.00;;;22.00;51.60;;;20.69;37.09;100037.16;10439501;27;96675;-79
2022/05/02 11:51:07;;;;;;;0.00;0.00;;;21.90;51.70;;;20.65;35.61;100036.00;10402008;27;96559;-79
2022/05/02 11:56:14;;;;;;;0.00;0.00;;;21.90;50.60;;;20.66;35.90;100032.25;10411820;27;96624;-79
2022/05/02 12:01:25;;;;;;;0.00;0.00;;;21.80;51.00;;;20.76;35.73;100033.28;10423021;27;96680;-80
2022/05/02 12:06:42;;;;;;;0.08;0.08;;;21.90;50.80;;;20.76;34.69;100019.78;10378233;27;96637;-79
2022/05/02 12:11:58;;;;;;;0.00;0.00;;;22.00;49.70;;;20.83;34.55;100014.25;10412431;27;98240;-79
2022/05/02 12:17:11;;;;;;;0.30;0.30;;;22.00;48.70;;;20.89;35.21;100005.19;10389045;27;96571;-80
2022/05/02 12:22:22;;;;;;;0.00;0.00;;;22.00;49.80;;;20.91;34.59;100004.94;10414750;27;96813;-79
2022/05/02 12:27:27;;;;;;;0.00;0.00;;;22.10;49.10;;;20.92;35.35;99996.59;10414268;27;97247;-79
2022/05/02 12:32:33;;;;;;;0.10;0.10;;;22.20;49.50;;;20.90;34.33;99996.00;10392134;27;97248;-79
2022/05/02 12:37:42;;;;;;;0.00;0.00;;;22.20;49.10;;;20.89;35.23;99988.16;10409443;27;97827;-79
2022/05/02 12:42:50;;;;;;;0.00;0.00;;;22.20;49.00;;;20.89;35.42;99983.56;10380337;27;96551;-79
2022/05/02 12:48:00;;;;;;;0.08;0.08;;;22.10;49.10;;;21.04;34.37;99970.34;10403825;27;96649;-79
2022/05/02 12:53:05;;;;;;;0.00;0.00;;;22.20;46.90;;;21.31;33.16;99962.50;10373090;28;96584;-79
2022/05/02 13:03:37;;;;;;;0.03;0.03;;;22.90;48.00;;;22.28;33.31;99950.47;10380059;27;96549;-80
2022/05/02 13:08:41;;;;;;;0.00;0.00;;;23.60;47.40;;;22.90;32.12;99943.91;10409262;27;97014;-80
2022/05/02 13:13:54;;;;;;;0.00;0.00;;;24.30;44.60;;;23.32;29.73;99935.09;10412200;27;97536;-79
2022/05/02 13:19:03;;;;;;;0.00;0.00;;;25.10;43.70;;;23.81;29.48;99929.53;10436168;27;96749;-80
2022/05/02 13:24:13;;;;;;;0.30;0.30;;;25.70;41.20;;;24.45;29.44;99916.59;10430755;27;96615;-80
2022/05/02 13:29:55;;;;;;;0.25;0.25;;;26.30;42.90;;;25.11;27.17;99907.78;10423745;27;96578;-80
2022/05/02 13:35:10;;;;;;;0.00;0.00;;;27.10;40.70;;;25.87;28.59;99899.59;10371991;27;96698;-80
2022/05/02 13:40:20;;;;;;;0.30;0.20;;;27.70;42.80;;;26.87;27.02;99900.53;10403759;27;96392;-80
2022/05/02 13:46:00;;;;;;;0.00;0.00;;;28.80;41.60;;;27.56;24.80;99883.09;10415860;27;96457;-80
2022/05/02 13:51:27;;;;;;;0.00;0.00;;;29.60;37.50;;;27.78;24.30;99881.84;10407463;27;97347;-80
2022/05/02 13:57:04;;;;;;;0.00;0.00;;;29.80;38.70;;;27.95;23.34;99882.19;10393788;27;96662;-80
2022/05/02 14:02:44;;;;;;;0.10;0.00;;;29.80;38.60;;;27.03;23.91;99880.25;10374693;27;98324;-80
2022/05/02 14:07:59;;;;;;;0.00;0.00;;;29.30;37.10;;;26.76;25.08;99885.38;10414971;27;96615;-80
2022/05/02 14:13:18;;;;;;;0.05;0.05;;;28.90;38.30;;;26.97;25.30;99883.31;10418427;27;96658;-79
2022/05/02 14:18:22;;;;;;;0.15;0.08;;;28.90;38.50;;;27.32;24.61;99877.59;10423450;27;96936;-79
2022/05/02 14:23:25;;;;;;;0.00;0.00;;;29.00;37.40;;;27.63;24.00;99869.09;10438951;27;96566;-80
2022/05/02 14:28:28;;;;;;;0.20;0.20;;;29.30;38.00;;;27.86;23.37;99875.72;10430780;27;96656;-80
2022/05/02 14:33:36;;;;;;;0.00;0.00;;;29.50;37.50;;;28.18;23.11;99861.41;10363716;28;96621;-80
2022/05/02 14:38:39;;;;;;;0.30;0.20;;;29.70;37.00;;;28.23;22.62;99850.41;10380199;27;96980;-79
2022/05/02 14:43:42;;;;;;;0.00;0.00;;;29.60;35.80;;;28.09;22.76;99849.53;10405423;27;96573;-80
2022/05/02 14:48:47;;;;;;;0.00;0.00;;;29.50;36.70;;;28.31;23.88;99857.13;10388809;27;96498;-80
2022/05/02 14:53:55;;;;;;;0.20;0.20;;;29.50;38.10;;;27.87;23.63;99861.78;10375992;28;96489;-79
2022/05/02 14:59:01;;;;;;;0.05;0.05;;;29.40;37.40;;;26.82;24.21;99874.13;10402627;27;96516;-79
2022/05/02 15:04:09;;;;;;;0.15;0.15;;;28.70;37.60;;;25.35;25.60;99876.25;10358700;28;96538;-79
2022/05/02 15:15:09;;;;;;;0.22;0.17;;;26.40;38.80;;;23.06;28.72;99899.63;10420909;27;96855;-80
2022/05/02 15:20:29;;;;;;;0.00;0.00;;;25.30;39.60;;;22.40;30.07;99898.91;10389947;27;97290;-80
2022/05/02 15:25:32;;;;;;;0.00;0.00;;;24.40;40.90;;;21.97;31.02;99892.38;10456345;27;96747;-80
2022/05/02 15:41:47;;;;;;;0.00;0.00;;;24.00;41.70;;;23.32;29.73;99883.56;10420070;27;96607;-80
2022/05/02 15:46:56;;;;;;;0.20;0.20;;;24.50;42.00;;;23.66;30.42;99882.22;10452670;27;96746;-79
2022/05/02 15:52:05;;;;;;;0.00;0.00;;;24.80;42.60;;;23.96;30.11;99880.78;10431072;27;96532;-79
2022/05/02 15:57:14;;;;;;;;;;;25.10;42.30;;;24.08;29.50;99880.56;10377332;27;96867;-79
2022/05/02 16:02:22;;;;;;;0.13;0.00;;;25.30;41.90;;;24.06;29.54;99880.84;10376340;27;97887;-79
2022/05/02 16:13:10;;;;;;;0.00;0.00;;;25.10;42.00;;;22.88;30.92;99879.16;10416667;27;97899;-79
2022/05/02 16:18:22;;;;;;;0.05;0.03;;;24.50;42.50;;;22.23;32.44;99873.78;10410198;27;96522;-79
2022/05/02 16:23:25;;;;;;;0.00;0.00;;;23.90;43.80;;;21.77;33.50;99865.03;10409494;27;99074;-79
2022/05/02 16:28:28;;;;;;;0.00;0.00;;;23.40;44.50;;;21.32;34.41;99860.63;10435288;27;96592;-79
2022/05/02 16:33:32;;;;;;;0.52;0.10;;;23.00;45.70;;;21.02;35.05;99856.31;10440601;27;97477;-79
2022/05/02 16:38:41;;;;;;;0.00;0.00;;;22.60;46.40;;;20.77;35.62;99867.50;10421637;27;97348;-78
2022/05/02 16:43:56;;;;;;;0.03;0.03;;;22.30;46.90;;;20.68;36.12;99871.63;10390324;28;96659;-79
2022/05/02 16:49:06;;;;;;;0.00;0.00;;;22.10;47.60;;;20.56;36.17;99870.88;10386438;27;96628;-79
2022/05/02 16:54:09;;;;;;;0.10;0.05;;;22.00;48.10;;;20.36;37.30;99868.56;10413676;27;97191;-79
2022/05/02 16:59:26;;;;;;;0.00;0.00;;;21.80;48.40;;;20.18;37.79;99871.44;10403389;27;96552;-79
2022/05/02 17:04:29;;;;;;;0.00;0.00;;;21.60;49.10;;;19.98;38.75;99869.97;10437017;27;98330;-79
2022/05/02 17:09:32;;;;;;;0.15;0.15;;;21.50;50.20;;;19.75;39.13;99873.50;10436776;27;97164;-79
2022/05/02 17:14:35;;;;;;;0.75;0.10;;;21.20;51.30;;;19.48;40.13;99869.59;10412974;27;96628;-79
2022/05/02 17:19:39;;;;;;;0.00;0.00;;;20.90;52.80;;;19.13;41.15;99883.03;10415518;27;97522;-79
2022/05/02 17:24:47;;;;;;;0.00;0.00;;;20.60;53.60;;;18.78;42.58;99886.47;10426957;27;97656;-79
2022/05/02 17:29:55;;;;;;;0.00;0.00;;;20.30;55.70;;;18.43;44.74;99895.19;10444235;27;96636;-79
2022/05/02 17:35:00;;;;;;;0.00;0.00;;;19.90;57.50;;;18.09;44.88;99902.00;10409243;27;96730;-79
2022/05/02 17:40:21;;;;;;;0.00;0.00;;;19.50;57.40;;;17.78;45.55;99900.28;10394274;27;98214;-79
2022/05/02 17:45:42;;;;;;;0.00;0.00;;;19.20;57.80;;;17.46;45.85;99904.88;10418518;27;96537;-80
2022/05/02 17:50:47;;;;;;;0.00;0.00;;;18.90;57.80;;;17.23;46.24;99901.97;10398500;27;96595;-80
2022/05/02 17:55:51;;;;;;;0.00;0.00;;;18.60;58.00;;;17.03;46.27;99902.94;10378681;27;96568;-80
2022/05/02 18:01:05;;;;;;;0.00;0.00;;;18.40;58.10;;;16.82;46.54;99909.47;10417920;27;96916;-80
2022/05/02 18:06:26;;;;;;;0.08;0.08;;;18.20;58.90;;;16.55;47.11;99921.34;10437768;27;96490;-80
2022/05/02 18:17:05;;;;;;;0.00;0.00;;;17.70;60.40;;;16.06;49.14;99922.75;10364704;28;96632;-80
2022/05/02 18:22:11;;;;;;;0.00;0.00;;;17.50;61.60;;;15.82;49.87;99915.38;10382027;27;96973;-80
2022/05/02 18:27:23;;;;;;;6.03;0.35;;;17.20;62.30;;;15.66;49.98;99917.47;10387891;27;96531;-80
2022/05/02 18:32:30;;;;;;;0.00;0.00;;;17.00;61.50;;;15.54;50.38;99932.50;10392724;27;96700;-80
2022/05/02 18:37:33;;;;;;;0.00;0.00;;;16.90;62.40;;;15.41;50.73;99938.69;10378346;28;96762;-80
2022/05/02 18:42:40;;;;;;;0.00;0.00;;;16.80;62.30;;;15.24;50.91;99935.56;10375186;27;96681;-80
2022/05/02 18:53:14;;;;;;;0.05;0.05;;;16.50;63.80;;;15.02;51.40;99954.69;10392174;27;98488;-79
2022/05/02 18:58:19;;;;;;;0.15;0.15;;;16.40;63.20;;;14.88;52.42;99956.50;10392747;27;97501;-78
2022/05/02 19:03:24;;;;;;;0.03;0.03;;;16.30;65.10;;;14.71;52.93;99958.72;10409841;28;96563;-79
2022/05/02 19:08:33;;;;;;;0.00;0.00;;;16.10;64.80;;;14.59;53.06;99966.47;10420037;27;98274;-79
2022/05/02 19:13:42;;;;;;;0.10;0.10;;;15.90;65.60;;;14.47;53.44;99973.41;10404153;27;96598;-79
2022/05/02 19:18:48;;;;;;;0.00;0.00;;;15.80;66.00;;;14.39;53.39;99968.19;10390710;27;96681;-79
2022/05/02 19:24:17;;;;;;;0.73;0.10;;;15.70;65.20;;;14.36;53.49;99965.94;10397797;27;99001;-79
2022/05/02 19:29:23;;;;;;;0.20;0.20;;;15.70;65.60;;;14.28;53.79;99974.13;10384065;27;96722;-79
2022/05/02 19:40:04;;;;;;;0.00;0.00;;;15.60;66.20;;;14.07;55.24;99988.38;10400345;27;97501;-79
2022/05/02 19:45:09;;;;;;;0.00;0.00;;;15.50;66.20;;;13.87;56.89;100004.25;10389887;27;96915;-79
2022/05/02 19:50:17;;;;;;;0.00;0.00;;;15.30;67.90;;;13.72;57.24;99990.97;10385473;27;96682;-79
2022/05/02 19:55:21;;;;;;;0.00;0.00;;;15.20;68.90;;;13.64;57.54;100002.63;10404899;27;98234;-79
2022/05/02 20:00:24;;;;;;;1.03;0.57;;;15.10;69.60;;;13.53;58.73;100003.16;10409333;27;97583;-79
2022/05/02 20:05:27;;;;;;;0.00;0.00;;;15.00;72.10;;;13.44;58.80;100006.97;10393316;27;97893;-80
2022/05/02 20:10:30;;;;;;;0.13;0.13;;;14.90;69.90;;;13.37;58.71;100003.41;10389482;27;99508;-79
2022/05/02 20:15:34;;;;;;;0.00;0.00;;;14.80;70.20;;;13.34;59.01;100004.63;10394300;27;98746;-79
2022/05/02 20:20:38;;;;;;;0.00;0.00;;;14.70;70.70;;;13.29;59.28;100000.88;10380978;27;97295;-79
2022/05/02 20:25:41;;;;;;;0.00;0.00;;;14.70;72.40;;;13.27;59.03;100002.91;10410899;28;96556;-80
2022/05/02 20:30:47;;;;;;;0.07;0.07;;;14.60;72.20;;;13.28;58.93;100007.22;10395315;27;96609;-79
2022/05/02 20:41:32;;;;;;;0.10;0.10;;;14.60;72.40;;;13.05;59.92;100018.03;10408767;27;97292;-79
2022/05/02 20:46:42;;;;;;;0.40;0.40;;;14.50;72.00;;;12.94;60.69;100003.34;10412846;27;97837;-81
2022/05/02 20:51:46;;;;;;;0.00;0.00;;;14.40;75.90;;;12.83;60.81;100006.47;10410683;27;96787;-79
2022/05/02 20:56:49;;;;;;;0.00;0.00;;;14.20;76.10;;;12.76;61.29;100021.59;10409904;27;98298;-80
2022/05/02 21:01:52;;;;;;;0.00;0.00;;;14.20;75.70;;;12.62;62.00;100019.78;10415606;27;96583;-81
2022/05/02 21:06:55;;;;;;;0.17;0.13;;;14.10;76.00;;;12.47;62.85;100023.25;10382785;27;96442;-81
2022/05/02 21:12:43;;;;;;;0.00;0.00;;;13.90;80.00;;;12.36;62.49;100031.72;10374440;27;96550;-81
2022/05/02 21:18:21;;;;;;;0.00;0.00;;;13.80;78.90;;;12.16;64.10;100028.75;10392775;27;96661;-81
2022/05/02 21:23:57;;;;;;;0.00;0.00;;;13.60;83.70;;;11.96;65.29;100016.97;10414372;27;96781;-79
2022/05/02 21:29:11;;;;;;;0.30;0.27;;;13.40;87.20;;;11.85;65.00;100023.56;10386391;27;96932;-80
2022/05/02 21:34:25;;;;;;;0.00;0.00;;;13.30;87.70;;;11.72;66.31;100008.19;10415152;27;97795;-81
2022/05/02 21:39:30;;;;;;;0.00;0.00;;;13.10;91.20;;;11.68;66.46;100016.69;10410420;27;96597;-80
2022/05/02 21:44:32;;;;;;;0.00;0.00;;;13.10;91.40;;;11.64;66.77;100004.78;10411675;27;96593;-80
2022/05/02 21:49:35;;;;;;;0.00;0.00;;;13.00;93.00;;;11.61;66.15;99997.97;10389979;27;96633;-80
2022/05/02 21:54:39;;;;;;;1.17;0.63;;;12.90;92.50;;;11.68;65.77;99992.75;10367834;28;97466;-80
2022/05/02 21:59:42;;;;;;;0.00;0.00;;;13.00;92.70;;;11.75;65.37;99991.88;10402558;27;96683;-80
2022/05/02 22:04:45;;;;;;;0.00;0.00;;;13.10;91.10;;;11.87;64.87;99994.91;10451779;27;96599;-80
2022/05/02 22:09:48;;;;;;;0.23;0.23;;;13.20;91.00;;;11.99;64.13;99990.81;10404896;27;96451;-80
2022/05/02 22:14:52;;;;;;;0.00;0.00;;;13.30;90.50;;;12.13;63.42;99993.69;10417992;27;96726;-80
2022/05/02 22:19:54;;;;;;;0.33;0.33;;;13.40;90.20;;;12.24;62.88;99979.91;10417779;27;97492;-80
2022/05/02 22:24:58;;;;;;;0.00;0.00;;;13.50;89.40;;;12.37;62.46;99976.59;10420681;27;96608;-80
2022/05/02 22:30:01;;;;;;;0.00;0.00;;;13.60;89.20;;;12.49;61.64;99977.78;10431774;27;96656;-80
2022/05/02 22:35:04;;;;;;;0.00;0.00;;;13.70;87.90;;;12.56;61.77;99973.34;10402078;27;96640;-80
2022/05/02 22:40:08;;;;;;;0.00;0.00;;;13.80;87.70;;;12.58;61.60;99964.16;10410101;27;96519;-80
2022/05/02 22:45:11;;;;;;;0.00;0.00;;;13.80;87.70;;;12.58;61.12;99956.16;10414241;27;98690;-80